Belle Chasse — WDG2912 — position and weather

sailwx.info

Track history (hours):
 
Tides and Currents Weather Stations Pressure Air Temp Water Temp Dewpoint Dewpoint Depression Visibility Wind Speed Wind Dir Waves Ship Positions

Belle Chasse

Owner: Higman Barge Lines, Inc, Orange, TX. More information available from US FCC via Universal Licensing System and Coast Guard Vessel Documentation Center.

Last reported at 2015-Aug-28 10:10 UTC. Time now 2015-Aug-28 17:08 UTC.
Position N 29°44' W 095°08'.

Length 26 m; draft 3 m.

Type: Towing. MMSI: 367520550.

Date/timePositionNaut miles runAvg speedWind from/ knotsBaromVisibWave heightAir tempDewpointWater temp
2015-Aug-28 10:10N 29°44' W 095°08'0 0.0
2015-Aug-28 09:28N 29°44' W 095°08'0 0.0
2015-Aug-28 08:28N 29°44' W 095°08'0 0.0
2015-Aug-28 07:19N 29°44' W 095°08'0 0.0
2015-Aug-28 04:28N 29°44' W 095°08'0 0.0
2015-Aug-28 01:16N 29°44' W 095°08'0 0.0
2015-Aug-28 00:22N 29°44' W 095°08'0 0.0
2015-Aug-27 22:31N 29°44' W 095°08'0 0.0
2015-Aug-27 20:32N 29°44' W 095°08'4 3.7
2015-Aug-27 19:32N 29°45' W 095°04'2 2.4
2015-Aug-27 18:33N 29°44' W 095°02'5 4.8
2015-Aug-27 17:33N 29°40' W 094°58'6 6.4
2015-Aug-27 16:33N 29°34' W 094°55'7 6.5
2015-Aug-27 15:33N 29°28' W 094°51'14 3.3
2015-Aug-27 11:25N 29°29' W 094°36'4 4.6
2015-Aug-27 10:33N 29°31' W 094°32'4 3.2
2015-Aug-27 09:08N 29°34' W 094°28'  
Track history (hours):
 
Tides and Currents Weather Stations Pressure Air Temp Water Temp Dewpoint Dewpoint Depression Visibility Wind Speed Wind Dir Waves Ship Positions

Belle Chasse

Owner: Higman Barge Lines, Inc, Orange, TX. More information available from US FCC via Universal Licensing System and Coast Guard Vessel Documentation Center.

Last reported at 2015-Aug-28 10:10 UTC. Time now 2015-Aug-28 17:08 UTC.
Position N 29°44' W 095°08'.

Length 26 m; draft 3 m.

Type: Towing. MMSI: 367520550.

Date/timePositionNaut miles runAvg speedWind from/ knotsBaromVisibWave heightAir tempDewpointWater temp
2015-Aug-28 10:10N 29°44' W 095°08'0 0.0
2015-Aug-28 09:28N 29°44' W 095°08'0 0.0
2015-Aug-28 08:28N 29°44' W 095°08'0 0.0
2015-Aug-28 07:19N 29°44' W 095°08'0 0.0
2015-Aug-28 04:28N 29°44' W 095°08'0 0.0
2015-Aug-28 01:16N 29°44' W 095°08'0 0.0
2015-Aug-28 00:22N 29°44' W 095°08'0 0.0
2015-Aug-27 22:31N 29°44' W 095°08'0 0.0
2015-Aug-27 20:32N 29°44' W 095°08'4 3.7
2015-Aug-27 19:32N 29°45' W 095°04'2 2.4
2015-Aug-27 18:33N 29°44' W 095°02'5 4.8
2015-Aug-27 17:33N 29°40' W 094°58'6 6.4
2015-Aug-27 16:33N 29°34' W 094°55'7 6.5
2015-Aug-27 15:33N 29°28' W 094°51'14 3.3
2015-Aug-27 11:25N 29°29' W 094°36'4 4.6
2015-Aug-27 10:33N 29°31' W 094°32'4 3.2
2015-Aug-27 09:08N 29°34' W 094°28'  

Dump ship's entire track history